Terminal Aerodrome Forecast
Issued by NWS

Home | Current Version | Previous Version | Text Only | Print | Product List | Glossary On
Versions: 1 2 3 4 5 6 7 8 9 10 11 12 13 14 15 16 17 18 19 20 21 22 23 24 25 26 27 28 29 30
000
FTUS45 KGJT 042343
TAFCNY
TAF
KCNY 042343Z 0500/0524 15006KT P6SM VCSH SCT100 BKN150
      TEMPO 0500/0502 18010G16KT -TSRA SCT060 BKN080CB
     FM050500 VRB04KT P6SM BKN100
     FM051500 12005KT P6SM VCSH OVC080
     FM052000 20009KT P6SM VCTS BKN080CB=

USA.gov is the U.S. government's official web portal to all federal, state and local government web resources and services.